Time;durP1;ratioP1;P1;durP2;ratioP2;P2;SDS_P1;SDS_P2;PMS_P1;PMS_P2;Temp;Humidity;BMP_temperature;BMP_pressure;BME280_temperature;BME280_humidity;BME280_pressure;Samples;Min_cycle;Max_cycle;Signal;HPM_P1;HPM_P2
2023/10/06 00:01:19;;;;;;;15.00;9.50;;;11.50;99.90;;;;;;6186553;23;20020;-82
2023/10/06 00:03:57;;;;;;;16.10;10.27;;;11.60;99.90;;;;;;6210695;23;20055;-82
2023/10/06 00:06:27;;;;;;;14.77;8.88;;;11.60;99.90;;;;;;6205598;23;20025;-84
2023/10/06 00:08:58;;;;;;;16.48;10.43;;;11.60;99.90;;;;;;6174790;23;20096;-82
2023/10/06 00:11:31;;;;;;;19.20;10.18;;;11.60;99.90;;;;;;6205022;23;20027;-83
2023/10/06 00:14:07;;;;;;;16.77;10.10;;;11.60;99.90;;;;;;6163873;23;20021;-82
2023/10/06 00:16:44;;;;;;;15.20;10.07;;;11.60;99.90;;;;;;6220748;23;20327;-84
2023/10/06 00:19:26;;;;;;;19.00;10.07;;;11.60;99.90;;;;;;6210787;23;20016;-83
2023/10/06 00:22:12;;;;;;;16.13;10.13;;;11.60;99.90;;;;;;6212234;23;20632;-81
2023/10/06 00:24:47;;;;;;;15.70;9.98;;;11.60;99.90;;;;;;6205373;23;20036;-82
2023/10/06 00:27:25;;;;;;;18.42;10.13;;;11.50;99.90;;;;;;6184271;23;20021;-85
2023/10/06 00:29:55;;;;;;;14.57;9.85;;;11.60;99.90;;;;;;6155393;23;20036;-83
2023/10/06 00:32:29;;;;;;;18.35;10.38;;;11.60;99.90;;;;;;6193689;23;20016;-83
2023/10/06 00:35:11;;;;;;;19.42;10.75;;;11.60;99.90;;;;;;6185795;23;20330;-82
2023/10/06 00:37:43;;;;;;;14.15;9.98;;;11.70;99.90;;;;;;6211511;23;20460;-83
2023/10/06 00:40:19;;;;;;;16.00;9.93;;;11.80;99.90;;;;;;6187237;23;20090;-83
2023/10/06 00:42:59;;;;;;;20.00;11.00;;;11.80;99.90;;;;;;6186108;23;20031;-84
2023/10/06 00:45:30;;;;;;;15.85;10.27;;;11.70;99.90;;;;;;6205662;23;20079;-83
2023/10/06 00:48:13;;;;;;;16.92;9.68;;;11.70;99.90;;;;;;6185899;23;20067;-82
2023/10/06 00:50:57;;;;;;;19.02;10.00;;;11.60;99.90;;;;;;6185538;23;20016;-82
2023/10/06 00:53:31;;;;;;;18.20;10.13;;;11.60;99.90;;;;;;6203543;23;20024;-84
2023/10/06 00:56:10;;;;;;;15.77;9.98;;;11.50;99.90;;;;;;6184711;23;20394;-81
2023/10/06 00:58:44;;;;;;;27.25;18.30;;;11.60;99.90;;;;;;6184761;23;20135;-83
2023/10/06 01:01:19;;;;;;;13.32;8.48;;;11.60;99.90;;;;;;6190252;23;20012;-83
2023/10/06 01:04:08;;;;;;;11.88;7.93;;;11.60;99.90;;;;;;6145718;23;20040;-83
2023/10/06 01:06:46;;;;;;;13.40;7.43;;;11.60;99.90;;;;;;6213583;23;20025;-82
2023/10/06 01:09:19;;;;;;;10.73;8.20;;;11.60;99.90;;;;;;6221031;23;20019;-82
2023/10/06 01:11:51;;;;;;;12.43;8.80;;;11.60;99.90;;;;;;6198579;23;20091;-81
2023/10/06 01:14:29;;;;;;;13.45;9.30;;;11.60;99.90;;;;;;6185346;23;20396;-81
2023/10/06 01:17:08;;;;;;;14.35;9.60;;;11.60;99.90;;;;;;6182996;23;20033;-82
2023/10/06 01:19:47;;;;;;;15.35;8.77;;;11.60;99.90;;;;;;6184738;23;20012;-82
2023/10/06 01:22:24;;;;;;;14.77;8.65;;;11.70;99.90;;;;;;6185778;23;20043;-83
2023/10/06 01:24:55;;;;;;;17.10;9.82;;;11.80;99.90;;;;;;6184374;23;20028;-83
2023/10/06 01:27:26;;;;;;;17.50;10.30;;;11.70;99.90;;;;;;6185864;23;20527;-84
2023/10/06 01:30:17;;;;;;;15.23;9.73;;;11.60;99.90;;;;;;6185127;23;20016;-82
2023/10/06 01:32:44;;;;;;;15.80;9.68;;;11.60;99.90;;;;;;6183749;23;20087;-82
2023/10/06 01:35:16;;;;;;;19.58;9.65;;;11.60;99.90;;;;;;6184617;23;20055;-82
2023/10/06 01:37:59;;;;;;;14.07;9.30;;;11.60;99.90;;;;;;6184714;23;20422;-83
2023/10/06 01:40:43;;;;;;;16.70;9.75;;;11.60;99.90;;;;;;6184675;23;20099;-83
2023/10/06 01:43:15;;;;;;;15.77;9.95;;;11.70;99.90;;;;;;6185619;23;20103;-85
2023/10/06 01:45:55;;;;;;;16.45;10.10;;;11.70;99.90;;;;;;6186649;23;20028;-83
2023/10/06 01:48:40;;;;;;;16.73;9.88;;;11.70;99.90;;;;;;6185988;23;20029;-83
2023/10/06 01:51:47;;;;;;;14.25;9.38;;;11.50;99.90;;;;;;6186981;23;20020;-83
2023/10/06 01:54:27;;;;;;;16.55;10.23;;;11.40;99.90;;;;;;6183353;23;20477;-84
2023/10/06 01:57:06;;;;;;;15.15;9.63;;;11.30;99.90;;;;;;6202705;23;20098;-83
2023/10/06 01:59:54;;;;;;;17.70;9.65;;;11.50;99.90;;;;;;6215790;23;20016;-83
2023/10/06 02:02:28;;;;;;;13.05;8.80;;;11.40;99.90;;;;;;6202232;23;20024;-83
2023/10/06 02:05:15;;;;;;;12.68;8.18;;;11.40;99.90;;;;;;6216290;23;20091;-83
2023/10/06 02:07:50;;;;;;;15.65;8.48;;;11.40;99.90;;;;;;6203383;23;20093;-83
2023/10/06 02:10:41;;;;;;;13.38;8.25;;;11.30;99.90;;;;;;6217473;23;20020;-83
2023/10/06 02:13:21;;;;;;;14.75;8.50;;;11.30;99.90;;;;;;6147472;23;20025;-84
2023/10/06 02:16:26;;;;;;;14.00;9.60;;;11.30;99.90;;;;;;6202788;23;20024;-82
2023/10/06 02:19:28;;;;;;;14.30;9.48;;;11.40;99.90;;;;;;6242511;22;20004;-83
2023/10/06 02:22:19;;;;;;;15.82;10.13;;;11.40;99.90;;;;;;6242839;22;20038;-84
2023/10/06 02:25:23;;;;;;;16.98;9.43;;;11.50;99.90;;;;;;6216566;23;20059;-83
2023/10/06 02:31:07;;;;;;;17.00;10.13;;;11.50;99.90;;;;;;6172774;23;20106;-82
2023/10/06 02:33:39;;;;;;;15.00;9.43;;;11.50;99.90;;;;;;6244415;23;20318;-85
2023/10/06 02:36:17;;;;;;;14.85;9.40;;;11.50;99.90;;;;;;6217949;23;20024;-82
2023/10/06 02:38:49;;;;;;;17.45;10.13;;;11.60;99.90;;;;;;6216675;23;20024;-84
2023/10/06 02:41:23;;;;;;;14.82;9.35;;;11.60;99.90;;;;;;6217537;23;20032;-83
2023/10/06 02:43:53;;;;;;;19.88;10.40;;;11.60;99.90;;;;;;6251407;22;20035;-83
2023/10/06 02:46:25;;;;;;;15.80;9.95;;;11.60;99.90;;;;;;6216130;23;20020;-81
2023/10/06 02:48:53;;;;;;;17.80;9.52;;;11.60;99.90;;;;;;6216804;23;20016;-82
2023/10/06 02:51:28;;;;;;;15.55;9.43;;;11.60;99.90;;;;;;6226867;23;20076;-84
2023/10/06 02:54:13;;;;;;;14.93;9.43;;;11.60;99.90;;;;;;6251733;23;20024;-82
2023/10/06 02:56:43;;;;;;;14.02;8.73;;;11.60;99.90;;;;;;6227869;23;20031;-83
2023/10/06 02:59:21;;;;;;;17.45;8.65;;;11.80;99.90;;;;;;6227767;23;20047;-82
2023/10/06 03:02:06;;;;;;;14.65;8.55;;;11.80;99.90;;;;;;6188808;23;20047;-82
2023/10/06 03:05:31;;;;;;;;;;;;;;;;;;;;;
2023/10/06 03:09:37;;;;;;;14.00;9.57;;;11.80;99.90;;;;;;6196291;23;20016;-84
2023/10/06 03:12:32;;;;;;;15.00;9.43;;;11.70;99.90;;;;;;6149167;23;20028;-77
2023/10/06 03:15:28;;;;;;;13.48;9.80;;;11.70;99.90;;;;;;6124587;23;20025;-82
2023/10/06 03:18:02;;;;;;;12.35;9.73;;;11.50;99.90;;;;;;6110628;23;20096;-82
2023/10/06 03:20:46;;;;;;;17.27;9.90;;;11.50;99.90;;;;;;6141938;23;20025;-82
2023/10/06 03:23:45;;;;;;;13.75;9.00;;;11.40;99.90;;;;;;6125901;23;20028;-83
2023/10/06 03:26:43;;;;;;;15.45;8.93;;;11.40;99.90;;;;;;6111586;23;20026;-83
2023/10/06 03:29:34;;;;;;;18.13;9.35;;;11.40;99.90;;;;;;6111172;23;20033;-83
2023/10/06 03:32:39;;;;;;;16.85;10.38;;;11.40;99.90;;;;;;6124579;23;20092;-83
2023/10/06 03:35:35;;;;;;;15.45;10.50;;;11.40;99.90;;;;;;6124744;23;20462;-83
2023/10/06 03:39:06;;;;;;;14.02;8.10;;;11.50;99.90;;;;;;6141520;23;20025;-82
2023/10/06 03:42:12;;;;;;;16.45;8.88;;;11.50;99.90;;;;;;6113548;23;20017;-83
2023/10/06 05:33:09;;;;;;;20.48;12.52;;;11.90;99.90;;;;;;5965859;23;20028;-82
2023/10/06 05:35:38;;;;;;;23.42;12.80;;;11.90;99.90;;;;;;6036788;23;20469;-80
2023/10/06 05:38:08;;;;;;;20.20;12.05;;;11.90;99.90;;;;;;6007963;23;20027;-79
2023/10/06 05:40:36;;;;;;;21.85;13.43;;;11.90;99.90;;;;;;6040180;23;20034;-80
2023/10/06 05:43:04;;;;;;;24.40;13.90;;;11.90;99.90;;;;;;6009248;23;20023;-81
2023/10/06 05:45:32;;;;;;;21.77;12.60;;;12.00;99.90;;;;;;6033891;23;20051;-80
2023/10/06 05:48:06;;;;;;;19.52;13.32;;;12.10;99.90;;;;;;6035138;23;20054;-81
2023/10/06 05:50:36;;;;;;;22.65;14.05;;;12.20;99.90;;;;;;6036735;23;20043;-80
2023/10/06 05:53:07;;;;;;;26.35;15.63;;;12.30;99.90;;;;;;6008555;23;20050;-81
2023/10/06 05:55:37;;;;;;;26.10;13.43;;;12.40;99.90;;;;;;6028776;23;20026;-81
2023/10/06 05:58:09;;;;;;;22.80;13.70;;;12.50;99.90;;;;;;6037684;23;20034;-79
2023/10/06 06:00:43;;;;;;;19.67;11.82;;;12.60;99.90;;;;;;6061066;23;20039;-80
2023/10/06 06:03:13;;;;;;;19.10;13.38;;;12.60;99.90;;;;;;6036884;23;20022;-82
2023/10/06 06:05:42;;;;;;;27.98;17.10;;;12.60;99.90;;;;;;6036715;23;20353;-80
2023/10/06 06:08:10;;;;;;;21.55;13.45;;;12.60;99.90;;;;;;6066796;23;20027;-80
2023/10/06 06:10:40;;;;;;;18.52;11.82;;;12.60;99.90;;;;;;6068057;23;20046;-80
2023/10/06 06:13:07;;;;;;;41.00;16.73;;;12.70;99.90;;;;;;6037333;23;20015;-81
2023/10/06 06:15:39;;;;;;;19.88;12.77;;;12.80;99.90;;;;;;6059636;23;20441;-80
2023/10/06 06:18:08;;;;;;;26.40;15.70;;;13.00;99.90;;;;;;6060464;23;20078;-78
2023/10/06 06:20:39;;;;;;;22.67;13.70;;;13.00;99.90;;;;;;6033538;23;20074;-80
2023/10/06 06:23:13;;;;;;;22.48;14.02;;;13.10;99.90;;;;;;6034738;23;20121;-80
2023/10/06 06:25:44;;;;;;;18.52;13.52;;;13.10;99.90;;;;;;6034288;23;20030;-79
2023/10/06 06:28:12;;;;;;;19.88;12.75;;;13.20;99.90;;;;;;6070733;23;20015;-80
2023/10/06 06:30:41;;;;;;;21.13;14.57;;;13.30;99.90;;;;;;6041196;23;20035;-80
2023/10/06 06:33:12;;;;;;;22.38;15.00;;;13.50;99.90;;;;;;6071183;23;20042;-79
2023/10/06 06:35:42;;;;;;;25.20;14.75;;;13.60;99.90;;;;;;6041751;23;20027;-82
2023/10/06 06:38:12;;;;;;;30.92;18.08;;;13.70;99.90;;;;;;6040041;23;20027;-79
2023/10/06 06:40:40;;;;;;;26.92;17.20;;;13.90;99.90;;;;;;6073511;23;20041;-81
2023/10/06 06:43:09;;;;;;;31.35;20.67;;;14.00;99.90;;;;;;6042147;23;20110;-82
2023/10/06 06:45:39;;;;;;;31.95;19.55;;;14.10;12.10;;;;;;6063647;23;20077;-78
2023/10/06 06:48:12;;;;;;;25.25;15.90;;;14.30;1.00;;;;;;6037938;23;20521;-79
2023/10/06 06:50:42;;;;;;;27.77;16.02;;;14.30;1.00;;;;;;6067270;23;20022;-80
2023/10/06 06:53:11;;;;;;;30.95;16.60;;;14.40;99.90;;;;;;6039784;23;20027;-81
2023/10/06 06:55:39;;;;;;;23.88;14.65;;;14.50;1.00;;;;;;6038779;23;20397;-79
2023/10/06 06:58:10;;;;;;;25.38;15.32;;;14.50;1.00;;;;;;6038535;23;20015;-81
2023/10/06 07:00:39;;;;;;;25.23;14.35;;;14.60;1.00;;;;;;6037732;23;20110;-81
2023/10/06 07:03:07;;;;;;;24.42;15.48;;;14.60;99.90;;;;;;6064335;23;20130;-81
2023/10/06 07:05:35;;;;;;;26.52;14.65;;;14.60;59.10;;;;;;6082071;23;20038;-78
2023/10/06 07:08:04;;;;;;;25.27;15.38;;;14.70;99.90;;;;;;6059331;23;20092;-80
2023/10/06 07:10:38;;;;;;;24.48;15.15;;;14.90;99.90;;;;;;6060631;23;20023;-78
2023/10/06 07:13:06;;;;;;;26.83;15.85;;;15.00;1.00;;;;;;6061885;23;20129;-80
2023/10/06 07:15:33;;;;;;;31.98;16.05;;;15.20;1.00;;;;;;6061218;23;20688;-79
2023/10/06 07:18:00;;;;;;;28.15;16.02;;;15.30;99.90;;;;;;6048598;23;20079;-80
2023/10/06 07:20:29;;;;;;;27.17;16.65;;;15.50;1.00;;;;;;6042297;23;20027;-80
2023/10/06 07:23:00;;;;;;;31.33;16.92;;;15.70;1.00;;;;;;6041179;23;20054;-79
2023/10/06 07:25:29;;;;;;;30.08;17.55;;;15.70;99.90;;;;;;6041655;23;20055;-81
2023/10/06 07:27:59;;;;;;;30.65;16.55;;;15.70;49.20;;;;;;6042753;23;20070;-79
2023/10/06 07:30:34;;;;;;;31.52;17.95;;;15.80;1.00;;;;;;6039256;23;20027;-78
2023/10/06 07:33:04;;;;;;;30.33;17.73;;;15.80;1.00;;;;;;6038835;23;20022;-81
2023/10/06 07:35:40;;;;;;;30.42;17.35;;;15.90;99.90;;;;;;6038921;23;20031;-81
2023/10/06 07:38:08;;;;;;;26.92;15.65;;;16.00;60.30;;;;;;6038454;23;20031;-79
2023/10/06 07:40:38;;;;;;;31.13;17.20;;;16.10;1.00;;;;;;6037918;23;20019;-80
2023/10/06 07:43:09;;;;;;;33.42;18.33;;;16.10;1.00;;;;;;6039675;23;20026;-79
2023/10/06 07:45:37;;;;;;;31.83;18.50;;;16.20;99.90;;;;;;6038593;23;20098;-82
2023/10/06 07:48:06;;;;;;;74.57;25.83;;;16.20;99.90;;;;;;6066026;23;20027;-80
2023/10/06 07:50:34;;;;;;;42.85;21.58;;;16.30;99.90;;;;;;6067507;23;20089;-82
2023/10/06 07:53:02;;;;;;;42.90;22.88;;;16.30;1.00;;;;;;6038902;23;20367;-79
2023/10/06 07:55:31;;;;;;;43.92;22.75;;;16.50;1.00;;;;;;6081642;23;20046;-77
2023/10/06 07:58:00;;;;;;;43.60;21.65;;;16.50;1.00;;;;;;6043353;23;20105;-79
2023/10/06 08:00:38;;;;;;;38.67;20.48;;;16.50;1.00;;;;;;6017100;23;20067;-79
2023/10/06 08:03:06;;;;;;;43.33;22.20;;;16.60;99.90;;;;;;6030933;23;20027;-80
2023/10/06 08:05:33;;;;;;;43.65;22.02;;;16.50;1.00;;;;;;6038023;23;20027;-81
2023/10/06 08:08:04;;;;;;;43.63;23.70;;;16.50;99.90;;;;;;6069149;23;20058;-81
2023/10/06 08:10:31;;;;;;;41.80;22.33;;;16.70;80.50;;;;;;6037224;23;20018;-78
2023/10/06 08:13:01;;;;;;;44.00;24.58;;;16.60;99.90;;;;;;6038767;23;20102;-80
2023/10/06 08:15:32;;;;;;;51.00;24.20;;;16.60;99.90;;;;;;6037566;23;20027;-80
2023/10/06 08:18:01;;;;;;;58.13;28.77;;;16.70;1.00;;;;;;6064015;23;20038;-80
2023/10/06 08:20:29;;;;;;;43.28;22.40;;;16.90;1.00;;;;;;6036980;23;20098;-79
2023/10/06 08:22:58;;;;;;;41.08;22.05;;;17.10;99.90;;;;;;6036602;23;20313;-81
2023/10/06 08:25:26;;;;;;;42.38;21.92;;;17.20;99.90;;;;;;6037805;23;20638;-80
2023/10/06 08:27:54;;;;;;;42.00;23.30;;;17.30;65.90;;;;;;6039037;23;20034;-79
2023/10/06 08:30:22;;;;;;;57.17;27.45;;;17.40;1.00;;;;;;6063400;23;20027;-79
2023/10/06 08:32:51;;;;;;;51.60;27.90;;;17.60;1.00;;;;;;6038444;23;20413;-79
2023/10/06 08:35:21;;;;;;;60.25;29.52;;;17.70;1.00;;;;;;6038304;23;20142;-81
2023/10/06 08:37:50;;;;;;;59.75;31.80;;;17.90;99.90;;;;;;6069895;23;20054;-79
2023/10/06 08:40:19;;;;;;;58.30;31.35;;;18.10;99.90;;;;;;6072749;23;20019;-80
2023/10/06 08:42:48;;;;;;;70.70;35.25;;;18.20;99.90;;;;;;6038261;23;20018;-80
2023/10/06 08:45:21;;;;;;;73.45;36.25;;;18.40;99.90;;;;;;6065949;23;20050;-78
2023/10/06 08:47:50;;;;;;;70.00;34.78;;;18.50;1.00;;;;;;6075441;23;20062;-79
2023/10/06 08:50:22;;;;;;;71.90;34.67;;;18.60;30.00;;;;;;6090318;23;20022;-79
2023/10/06 08:52:52;;;;;;;66.82;33.50;;;18.70;1.00;;;;;;6099100;23;20456;-78
2023/10/06 08:55:19;;;;;;;64.43;30.73;;;18.70;1.00;;;;;;6163932;23;20044;-80
2023/10/06 08:57:48;;;;;;;72.50;35.40;;;18.80;1.00;;;;;;6132427;23;20081;-79
2023/10/06 09:00:17;;;;;;;71.28;33.70;;;18.70;1.00;;;;;;6174199;23;20040;-79
2023/10/06 09:02:46;;;;;;;76.38;36.28;;;18.60;1.00;;;;;;6171294;23;20072;-77
2023/10/06 09:05:14;;;;;;;76.82;37.35;;;18.80;1.00;;;;;;6172199;23;20041;-81
2023/10/06 09:08:04;;;;;;;70.00;38.35;;;18.80;1.00;;;;;;6167213;23;20026;-79
2023/10/06 09:10:33;;;;;;;42.22;23.70;;;19.10;1.00;;;;;;6167162;23;20068;-78
2023/10/06 09:13:04;;;;;;;35.15;20.27;;;19.30;1.00;;;;;;6166192;23;20041;-78
2023/10/06 09:15:32;;;;;;;39.40;21.45;;;19.20;1.00;;;;;;6231673;23;20024;-81
2023/10/06 09:18:02;;;;;;;38.53;21.00;;;19.30;1.00;;;;;;6221932;23;20027;-78
2023/10/06 09:20:32;;;;;;;39.08;18.90;;;19.30;1.00;;;;;;6253527;22;20474;-79
2023/10/06 09:23:01;;;;;;;39.20;18.50;;;19.20;1.00;;;;;;6251124;23;20028;-82
2023/10/06 09:25:41;;;;;;;36.65;18.20;;;19.10;1.00;;;;;;6251727;23;20027;-81
2023/10/06 09:28:13;;;;;;;38.03;19.45;;;18.80;1.00;;;;;;6253674;23;20087;-82
2023/10/06 09:30:56;;;;;;;31.58;17.90;;;18.40;1.00;;;;;;6242653;22;20020;-81
2023/10/06 09:33:26;;;;;;;35.97;18.30;;;18.40;1.00;;;;;;6244056;23;20468;-83
2023/10/06 09:36:08;;;;;;;37.10;19.55;;;18.20;1.00;;;;;;6216924;23;20047;-82
2023/10/06 09:38:38;;;;;;;44.00;22.90;;;18.20;1.00;;;;;;6239566;22;20476;-80
2023/10/06 09:41:07;;;;;;;45.28;24.60;;;18.20;1.00;;;;;;6240218;22;20020;-80
2023/10/06 09:43:36;;;;;;;45.28;25.17;;;18.30;1.00;;;;;;6214775;23;20020;-82
2023/10/06 09:46:11;;;;;;;46.40;21.45;;;18.40;1.00;;;;;;6240349;23;20022;-83
2023/10/06 09:48:40;;;;;;;46.60;20.90;;;18.60;1.00;;;;;;6241990;23;20013;-79
2023/10/06 09:51:08;;;;;;;50.65;22.52;;;18.40;1.00;;;;;;6243771;22;20024;-83
2023/10/06 09:53:44;;;;;;;44.15;22.92;;;18.40;1.00;;;;;;6215399;23;20020;-79
2023/10/06 09:56:16;;;;;;;42.53;23.13;;;18.40;99.90;;;;;;6248444;23;20028;-80
2023/10/06 09:58:48;;;;;;;38.17;19.65;;;18.40;1.00;;;;;;6249912;23;20086;-81
2023/10/06 10:01:16;;;;;;;40.60;19.80;;;18.40;1.00;;;;;;6252133;22;20020;-80
2023/10/06 10:03:44;;;;;;;42.25;21.15;;;18.40;1.00;;;;;;6215248;23;20016;-81
2023/10/06 10:06:14;;;;;;;35.53;21.25;;;18.50;1.00;;;;;;6247585;23;20047;-83
2023/10/06 10:08:43;;;;;;;39.92;19.83;;;18.50;99.90;;;;;;6248725;23;20027;-82
2023/10/06 10:11:25;;;;;;;39.67;21.80;;;18.70;99.90;;;;;;6250325;22;20086;-80
2023/10/06 10:14:18;;;;;;;50.30;21.38;;;18.70;99.90;;;;;;6251156;23;20028;-80
2023/10/06 10:17:13;;;;;;;40.58;19.83;;;18.70;1.00;;;;;;6251738;23;20031;-79
2023/10/06 10:19:44;;;;;;;32.35;18.15;;;18.80;1.00;;;;;;6252003;23;20020;-81
2023/10/06 10:22:13;;;;;;;35.83;10.63;;;18.90;1.00;;;;;;6253975;22;20124;-81
2023/10/06 10:24:43;;;;;;;18.92;9.38;;;19.00;1.00;;;;;;6243180;23;20043;-79
2023/10/06 10:27:14;;;;;;;22.48;11.98;;;19.10;25.80;;;;;;6241852;23;20038;-80
2023/10/06 10:29:42;;;;;;;24.48;13.30;;;19.20;1.00;;;;;;6245944;23;20016;-79
2023/10/06 10:32:22;;;;;;;34.03;21.38;;;19.20;1.00;;;;;;6242648;22;20456;-82
2023/10/06 10:35:12;;;;;;;27.33;13.57;;;19.20;1.00;;;;;;6251987;23;20039;-78
2023/10/06 10:37:59;;;;;;;28.35;14.52;;;19.30;1.00;;;;;;6217585;23;20032;-82
2023/10/06 10:40:29;;;;;;;32.03;14.27;;;19.40;1.00;;;;;;6220607;23;20020;-80
2023/10/06 10:43:04;;;;;;;32.53;18.17;;;19.50;1.00;;;;;;6235125;23;20019;-80
2023/10/06 10:45:43;;;;;;;37.50;15.20;;;19.40;1.00;;;;;;6262604;23;20032;-82
2023/10/06 10:48:13;;;;;;;30.38;15.30;;;19.40;1.00;;;;;;6233280;23;20031;-81
2023/10/06 10:51:15;;;;;;;28.08;13.63;;;19.60;1.00;;;;;;6263253;22;20035;-81
2023/10/06 10:53:56;;;;;;;26.92;12.25;;;19.80;1.00;;;;;;6221089;23;20027;-81
2023/10/06 10:56:36;;;;;;;28.38;13.00;;;19.90;1.00;;;;;;6234878;23;20030;-81
2023/10/06 10:59:04;;;;;;;22.55;11.10;;;19.90;1.00;;;;;;6232496;23;20035;-80
2023/10/06 11:01:33;;;;;;;22.92;12.38;;;19.90;1.00;;;;;;6228453;23;20036;-80
2023/10/06 11:04:21;;;;;;;20.23;11.05;;;19.90;1.00;;;;;;6251222;22;20024;-80
2023/10/06 11:06:50;;;;;;;21.38;11.68;;;20.00;1.00;;;;;;6223844;23;20024;-80
2023/10/06 11:09:30;;;;;;;20.70;11.23;;;20.00;54.10;;;;;;6223726;23;20130;-78
2023/10/06 11:12:01;;;;;;;20.15;10.82;;;20.10;99.90;;;;;;6236248;22;20024;-81
2023/10/06 11:14:30;;;;;;;20.75;10.65;;;20.10;99.90;;;;;;6254300;23;20514;-81
2023/10/06 11:17:03;;;;;;;18.30;10.55;;;20.10;1.00;;;;;;6244276;22;20460;-80
2023/10/06 11:19:32;;;;;;;23.38;13.02;;;20.10;1.00;;;;;;6224406;22;20484;-81
2023/10/06 11:22:13;;;;;;;24.23;11.48;;;20.10;1.00;;;;;;6245339;22;20027;-79
2023/10/06 11:24:44;;;;;;;15.23;8.77;;;20.20;1.00;;;;;;6258849;23;20051;-79
2023/10/06 11:27:21;;;;;;;17.10;9.80;;;20.10;1.00;;;;;;6234887;23;20154;-81
2023/10/06 11:29:51;;;;;;;18.35;10.75;;;20.20;1.00;;;;;;6230533;22;20024;-79
2023/10/06 11:32:26;;;;;;;20.77;10.52;;;20.20;99.90;;;;;;6249518;23;20047;-85
2023/10/06 11:35:19;;;;;;;21.63;10.40;;;20.30;1.00;;;;;;6261644;23;20031;-87
2023/10/06 11:37:49;;;;;;;19.13;9.75;;;20.30;1.00;;;;;;6260141;22;20024;-86
2023/10/06 11:40:21;;;;;;;22.50;10.65;;;20.20;1.00;;;;;;6235377;23;20121;-88
2023/10/06 11:42:51;;;;;;;18.85;9.90;;;20.20;1.00;;;;;;6262444;23;20024;-87
2023/10/06 11:45:27;;;;;;;17.90;9.85;;;20.20;1.00;;;;;;6236702;23;20008;-86
2023/10/06 11:47:56;;;;;;;15.52;8.48;;;20.20;99.90;;;;;;6230885;23;20020;-87
2023/10/06 11:50:26;;;;;;;23.10;10.35;;;20.10;1.00;;;;;;6273146;22;20059;-86
2023/10/06 11:52:55;;;;;;;17.23;9.60;;;20.20;99.90;;;;;;6279399;22;20051;-87
2023/10/06 11:55:35;;;;;;;15.85;8.07;;;20.40;1.00;;;;;;6244540;22;20004;-87
2023/10/06 11:58:36;;;;;;;14.77;7.35;;;20.40;1.00;;;;;;6246695;22;20026;-87
2023/10/06 12:01:04;;;;;;;16.85;7.97;;;20.60;1.00;;;;;;6212573;23;20035;-88
2023/10/06 12:03:42;;;;;;;18.10;7.88;;;20.60;1.00;;;;;;6232788;23;20043;-83
2023/10/06 12:06:12;;;;;;;14.27;8.05;;;20.60;1.00;;;;;;6257027;23;20016;-82
2023/10/06 12:08:44;;;;;;;12.30;6.93;;;20.50;99.90;;;;;;6257523;23;20024;-83
2023/10/06 12:11:18;;;;;;;32.45;19.15;;;20.50;1.00;;;;;;6257952;22;20051;-84
2023/10/06 12:14:21;;;;;;;37.58;25.20;;;20.40;1.00;;;;;;6221067;23;20122;-81
2023/10/06 12:16:48;;;;;;;130.13;91.63;;;20.40;1.00;;;;;;6252740;23;20034;-82
2023/10/06 12:19:16;;;;;;;20.52;10.60;;;20.40;99.90;;;;;;6256193;23;20014;-82
2023/10/06 12:21:44;;;;;;;52.72;35.50;;;20.50;99.90;;;;;;6219789;23;20421;-87
2023/10/06 12:24:12;;;;;;;18.88;9.57;;;20.50;1.00;;;;;;6222191;23;20074;-82
2023/10/06 12:26:46;;;;;;;15.13;7.93;;;20.50;1.00;;;;;;6221362;23;20059;-89
2023/10/06 12:29:17;;;;;;;17.83;9.18;;;20.60;1.00;;;;;;6250656;22;20046;-85
2023/10/06 12:31:46;;;;;;;18.85;8.40;;;20.70;1.00;;;;;;6253757;23;20020;-84
2023/10/06 12:34:15;;;;;;;19.48;8.73;;;20.70;1.00;;;;;;6254044;23;20027;-82
2023/10/06 12:36:47;;;;;;;18.95;9.10;;;20.70;1.00;;;;;;6242574;23;20047;-83
2023/10/06 12:39:33;;;;;;;17.45;8.38;;;20.70;1.00;;;;;;6243663;22;20027;-90
2023/10/06 12:42:21;;;;;;;12.73;7.45;;;20.80;1.00;;;;;;6220704;23;20047;-86
2023/10/06 12:45:00;;;;;;;15.18;7.70;;;20.90;1.00;;;;;;6249753;23;20031;-82
2023/10/06 12:47:33;;;;;;;16.90;9.50;;;20.90;1.00;;;;;;6253625;23;20016;-88
2023/10/06 12:50:13;;;;;;;19.88;10.77;;;20.90;1.00;;;;;;6221883;23;20091;-86
2023/10/06 12:56:15;;;;;;;22.95;12.20;;;20.90;1.00;;;;;;6214017;23;20074;-88
2023/10/06 12:58:43;;;;;;;16.17;9.48;;;20.90;1.00;;;;;;6261380;23;20013;-86
2023/10/06 13:01:25;;;;;;;13.68;6.97;;;20.90;1.00;;;;;;6247506;22;20044;-87
2023/10/06 13:07:00;;;;;;;29.70;15.70;;;20.90;1.00;;;;;;6207945;23;20487;-80
2023/10/06 13:09:58;;;;;;;15.82;7.57;;;20.90;1.00;;;;;;6245420;22;20095;-82
2023/10/06 13:12:56;;;;;;;15.45;8.07;;;20.90;1.00;;;;;;6222977;23;20140;-81
2023/10/06 13:15:37;;;;;;;17.40;8.50;;;20.90;1.00;;;;;;6214889;23;20046;-86
2023/10/06 13:18:08;;;;;;;14.85;8.00;;;20.80;1.00;;;;;;6247203;23;20032;-87
2023/10/06 13:20:40;;;;;;;12.45;6.40;;;20.90;1.00;;;;;;6225978;23;20105;-84
2023/10/06 13:23:09;;;;;;;11.38;5.88;;;20.80;1.00;;;;;;6218778;23;20055;-81
2023/10/06 13:25:37;;;;;;;25.67;13.27;;;20.80;1.00;;;;;;6224519;23;20020;-86
2023/10/06 13:28:14;;;;;;;14.82;6.55;;;20.80;1.00;;;;;;6256674;23;20031;-81
2023/10/06 13:30:45;;;;;;;15.43;7.65;;;20.80;1.00;;;;;;6262417;22;20035;-87
2023/10/06 13:33:26;;;;;;;11.30;6.85;;;20.80;1.00;;;;;;6224703;23;20031;-87
2023/10/06 13:35:54;;;;;;;20.00;9.18;;;20.90;1.00;;;;;;6262805;23;20200;-88
2023/10/06 13:38:25;;;;;;;12.00;7.50;;;20.90;1.00;;;;;;6222053;23;20024;-88
2023/10/06 13:40:53;;;;;;;13.60;7.15;;;20.90;1.00;;;;;;6220811;23;20472;-89
2023/10/06 13:43:20;;;;;;;13.85;6.80;;;20.90;1.00;;;;;;6224774;23;20809;-88
2023/10/06 13:45:53;;;;;;;16.73;8.35;;;20.90;1.00;;;;;;6249513;23;20016;-88
2023/10/06 13:48:26;;;;;;;13.20;7.63;;;21.00;1.00;;;;;;6223245;23;20128;-86
2023/10/06 13:50:57;;;;;;;15.23;7.28;;;21.00;1.00;;;;;;6243157;23;20020;-86
2023/10/06 13:53:44;;;;;;;15.65;7.10;;;20.90;1.00;;;;;;6241516;23;20004;-87
2023/10/06 13:56:11;;;;;;;;;;;20.80;1.00;;;;;;6231821;23;20047;-83
2023/10/06 13:58:41;;;;;;;14.57;7.43;;;20.80;1.00;;;;;;6258665;23;19916;-84
2023/10/06 14:01:10;;;;;;;12.68;6.93;;;20.80;1.00;;;;;;6267636;22;20027;-85
2023/10/06 14:03:42;;;;;;;11.57;6.10;;;20.80;1.00;;;;;;6249084;23;20044;-87
2023/10/06 14:06:10;;;;;;;14.40;6.30;;;20.80;1.00;;;;;;6218420;23;20016;-81
2023/10/06 14:08:43;;;;;;;14.68;5.82;;;20.70;1.00;;;;;;6216212;23;20482;-87
2023/10/06 14:11:11;;;;;;;11.18;5.85;;;20.60;1.00;;;;;;6218306;23;20023;-82
2023/10/06 14:13:43;;;;;;;12.85;5.82;;;20.60;1.00;;;;;;6255208;23;20042;-85
2023/10/06 14:16:14;;;;;;;10.13;5.70;;;20.60;1.00;;;;;;6218223;23;20016;-80
2023/10/06 14:18:43;;;;;;;14.23;8.02;;;20.60;1.00;;;;;;6221305;23;20103;-87
2023/10/06 14:21:14;;;;;;;8.02;3.88;;;20.60;1.00;;;;;;6222715;23;20024;-87
2023/10/06 14:23:46;;;;;;;7.07;3.85;;;20.60;1.00;;;;;;6226248;23;20024;-88
2023/10/06 14:26:14;;;;;;;8.95;3.70;;;20.50;1.00;;;;;;6228463;23;20044;-88
2023/10/06 14:28:44;;;;;;;7.80;3.58;;;20.50;1.00;;;;;;6266960;22;20020;-89
2023/10/06 14:31:24;;;;;;;5.95;3.10;;;20.60;44.00;;;;;;6272046;23;20122;-88
2023/10/06 14:34:33;;;;;;;7.50;3.72;;;20.50;27.70;;;;;;6228064;23;20038;-86
2023/10/06 14:36:47;;;;;;;6.68;3.30;;;20.50;87.40;;;;;;6223265;23;20563;-86
2023/10/06 14:47:48;;;;;;;6.05;3.58;;;20.50;99.90;;;;;;6266377;23;20024;-87
2023/10/06 14:50:19;;;;;;;9.15;4.47;;;20.40;99.90;;;;;;6234515;23;20024;-90
2023/10/06 14:52:51;;;;;;;9.60;3.42;;;20.30;99.90;;;;;;6235904;23;20024;-87
2023/10/06 14:55:21;;;;;;;9.05;4.22;;;20.30;99.90;;;;;;6233340;23;20020;-88
2023/10/06 14:57:55;;;;;;;6.35;3.22;;;20.20;99.90;;;;;;6181749;23;20051;-88
2023/10/06 15:00:26;;;;;;;8.23;4.43;;;20.20;99.90;;;;;;6241071;23;20042;-85
2023/10/06 15:02:56;;;;;;;7.07;3.67;;;20.10;99.90;;;;;;6225468;23;20034;-88
2023/10/06 15:05:31;;;;;;;7.30;3.72;;;20.10;99.90;;;;;;6249831;23;20017;-87
2023/10/06 15:08:00;;;;;;;10.07;7.05;;;20.10;99.90;;;;;;6222184;23;20402;-89
2023/10/06 15:10:28;;;;;;;8.85;4.00;;;20.00;99.90;;;;;;6220792;23;20020;-87
2023/10/06 15:12:58;;;;;;;6.45;3.08;;;19.90;99.90;;;;;;6222713;23;20022;-88
2023/10/06 15:15:28;;;;;;;9.18;4.03;;;19.90;99.90;;;;;;6253153;23;20348;-88
2023/10/06 15:17:57;;;;;;;8.18;3.58;;;19.80;99.90;;;;;;6246253;23;20020;-89
2023/10/06 15:20:28;;;;;;;6.93;3.83;;;19.70;99.90;;;;;;6228777;23;20039;-85
2023/10/06 15:22:55;;;;;;;7.47;4.13;;;19.80;99.90;;;;;;6255065;23;20070;-85
2023/10/06 15:25:24;;;;;;;7.90;4.15;;;19.70;99.90;;;;;;6243771;23;20039;-83